AEZ2382 LIEE-LIPE
Flight info
| Callsign | AEZ2382 |
|---|---|
| Flight time | 0h 59m |
| Altitude | 34000 |
| Route | KOVAS Q125 DEXUL/N0464F340 DCT ELB DCT MAREL DCT GINAR/N0391F180 L12 LOMED |
| Aircraft | B738/M-SDE2E3FGHIRWXY/LB1 |
Departure
| Time | 2026-05-09 03:37 |
|---|---|
| Airport | Cagliari Elmas Airport (LIEE) |
Arrival
| Time | 2026-05-09 04:36 |
|---|---|
| Airport | Bologna Guglielmo Marconi Airport (LIPE) |
| Time | Latitude | Longitude | Altitude | Speed | Heading |
|---|---|---|---|---|---|
| 2026-05-09 03:27 | 39.25262 | 9.05981 | 14 ft | 0 kts | 322° |
| 2026-05-09 03:31 | 39.25250 | 9.05993 | 41 ft | 4 kts | 322° |
| 2026-05-09 03:31 | 39.25230 | 9.06013 | 5 ft | 2 kts | 322° |
| 2026-05-09 03:32 | 39.25215 | 9.06031 | 15 ft | 4 kts | 277° |
| 2026-05-09 03:32 | 39.25223 | 9.06055 | 16 ft | 4 kts | 232° |
| 2026-05-09 03:32 | 39.25230 | 9.06067 | 18 ft | 0 kts | 232° |
| 2026-05-09 03:33 | 39.25227 | 9.06063 | 16 ft | 2 kts | 232° |
| 2026-05-09 03:34 | 39.25224 | 9.06057 | 16 ft | 5 kts | 232° |
| 2026-05-09 03:34 | 39.25190 | 9.06000 | 14 ft | 11 kts | 232° |
| 2026-05-09 03:34 | 39.25115 | 9.05936 | 14 ft | 16 kts | 156° |
| 2026-05-09 03:34 | 39.25036 | 9.06041 | 14 ft | 19 kts | 133° |
| 2026-05-09 03:35 | 39.24925 | 9.06177 | 14 ft | 25 kts | 140° |
| 2026-05-09 03:35 | 39.24765 | 9.06319 | 14 ft | 30 kts | 148° |
| 2026-05-09 03:35 | 39.24580 | 9.06468 | 14 ft | 32 kts | 148° |
| 2026-05-09 03:35 | 39.24387 | 9.06583 | 14 ft | 30 kts | 185° |
| 2026-05-09 03:36 | 39.24244 | 9.06485 | 16 ft | 14 kts | 268° |
| 2026-05-09 03:36 | 39.24373 | 9.06319 | 15 ft | 56 kts | 318° |
| 2026-05-09 03:36 | 39.24838 | 9.05783 | 16 ft | 120 kts | 318° |
| 2026-05-09 03:36 | 39.25596 | 9.04925 | 108 ft | 161 kts | 320° |
| 2026-05-09 03:37 | 39.26456 | 9.03949 | 675 ft | 167 kts | 318° |
| 2026-05-09 03:37 | 39.27369 | 9.02967 | 1254 ft | 179 kts | 332° |
| 2026-05-09 03:37 | 39.28611 | 9.02517 | 1715 ft | 189 kts | 5° |
| 2026-05-09 03:37 | 39.29968 | 9.02783 | 2192 ft | 210 kts | 13° |
| 2026-05-09 03:38 | 39.31452 | 9.03105 | 2737 ft | 221 kts | 11° |
| 2026-05-09 03:38 | 39.32988 | 9.03377 | 3403 ft | 224 kts | 9° |
| 2026-05-09 03:38 | 39.34535 | 9.03603 | 4123 ft | 224 kts | 7° |
| 2026-05-09 03:38 | 39.36095 | 9.03798 | 4821 ft | 226 kts | 5° |
| 2026-05-09 03:39 | 39.37663 | 9.03968 | 5499 ft | 227 kts | 3° |
| 2026-05-09 03:39 | 39.39252 | 9.04119 | 6157 ft | 230 kts | 1° |
| 2026-05-09 03:39 | 39.40852 | 9.04259 | 6794 ft | 231 kts | 0° |
| 2026-05-09 03:39 | 39.42466 | 9.04394 | 7383 ft | 234 kts | 359° |
| 2026-05-09 03:40 | 39.44098 | 9.04529 | 7982 ft | 236 kts | 359° |
| 2026-05-09 03:40 | 39.45748 | 9.04663 | 8600 ft | 239 kts | 359° |
| 2026-05-09 03:40 | 39.47461 | 9.04849 | 8911 ft | 257 kts | 0° |
| 2026-05-09 03:40 | 39.49277 | 9.05085 | 9317 ft | 266 kts | 0° |
| 2026-05-09 03:41 | 39.51133 | 9.05335 | 9868 ft | 269 kts | 0° |
| 2026-05-09 03:41 | 39.52973 | 9.05582 | 10402 ft | 271 kts | 0° |
| 2026-05-09 03:41 | 39.54857 | 9.05832 | 10899 ft | 274 kts | 0° |
| 2026-05-09 03:41 | 39.56759 | 9.06082 | 11412 ft | 276 kts | 0° |
| 2026-05-09 03:42 | 39.58677 | 9.06332 | 11939 ft | 278 kts | 0° |
| 2026-05-09 03:42 | 39.60612 | 9.06584 | 12436 ft | 281 kts | 0° |
| 2026-05-09 03:42 | 39.62564 | 9.06838 | 12946 ft | 283 kts | 0° |
| 2026-05-09 03:42 | 39.64530 | 9.07097 | 13449 ft | 286 kts | 1° |
| 2026-05-09 03:43 | 39.66506 | 9.07585 | 13933 ft | 292 kts | 9° |
| 2026-05-09 03:43 | 39.68475 | 9.08260 | 14401 ft | 293 kts | 10° |
| 2026-05-09 03:43 | 39.70446 | 9.08963 | 14892 ft | 294 kts | 10° |
| 2026-05-09 03:43 | 39.72419 | 9.09658 | 15366 ft | 294 kts | 9° |
| 2026-05-09 03:44 | 39.74404 | 9.10343 | 15799 ft | 296 kts | 9° |
| 2026-05-09 03:44 | 39.76407 | 9.11023 | 16228 ft | 298 kts | 9° |
| 2026-05-09 03:44 | 39.78421 | 9.11701 | 16647 ft | 300 kts | 9° |
| 2026-05-09 03:44 | 39.80452 | 9.12381 | 17074 ft | 302 kts | 9° |
| 2026-05-09 03:45 | 39.82496 | 9.13064 | 17499 ft | 304 kts | 9° |
| 2026-05-09 03:45 | 39.84549 | 9.13750 | 17917 ft | 306 kts | 8° |
| 2026-05-09 03:45 | 39.86615 | 9.14464 | 18335 ft | 309 kts | 10° |
| 2026-05-09 03:45 | 39.88682 | 9.15288 | 18686 ft | 312 kts | 12° |
| 2026-05-09 03:46 | 39.90754 | 9.16158 | 19038 ft | 314 kts | 12° |
| 2026-05-09 03:46 | 39.92837 | 9.17048 | 19366 ft | 316 kts | 12° |
| 2026-05-09 03:46 | 39.94935 | 9.17940 | 19670 ft | 318 kts | 12° |
| 2026-05-09 03:46 | 39.97050 | 9.18836 | 19994 ft | 321 kts | 11° |
| 2026-05-09 03:47 | 39.99178 | 9.19735 | 20331 ft | 323 kts | 11° |
| 2026-05-09 03:47 | 40.01323 | 9.20641 | 20656 ft | 325 kts | 11° |
| 2026-05-09 03:47 | 40.03484 | 9.21550 | 20973 ft | 327 kts | 11° |
| 2026-05-09 03:47 | 40.05660 | 9.22465 | 21290 ft | 329 kts | 11° |
| 2026-05-09 03:48 | 40.07849 | 9.23387 | 21531 ft | 332 kts | 11° |
| 2026-05-09 03:48 | 40.10053 | 9.24314 | 21853 ft | 334 kts | 11° |
| 2026-05-09 03:48 | 40.12269 | 9.25246 | 22199 ft | 335 kts | 10° |
| 2026-05-09 03:48 | 40.14488 | 9.26179 | 22506 ft | 336 kts | 10° |
| 2026-05-09 03:49 | 40.16722 | 9.27119 | 22778 ft | 339 kts | 10° |
| 2026-05-09 03:49 | 40.18974 | 9.28067 | 23035 ft | 341 kts | 10° |
| 2026-05-09 03:49 | 40.21240 | 9.29021 | 23335 ft | 343 kts | 10° |
| 2026-05-09 03:49 | 40.23515 | 9.29980 | 23610 ft | 345 kts | 10° |
| 2026-05-09 03:50 | 40.25805 | 9.30946 | 23828 ft | 346 kts | 10° |
| 2026-05-09 03:50 | 40.28099 | 9.31916 | 24042 ft | 347 kts | 10° |
| 2026-05-09 03:50 | 40.30402 | 9.32890 | 24257 ft | 348 kts | 10° |
| 2026-05-09 03:50 | 40.32678 | 9.33854 | 24462 ft | 349 kts | 10° |
| 2026-05-09 03:51 | 40.34996 | 9.34835 | 24676 ft | 351 kts | 10° |
| 2026-05-09 03:51 | 40.37351 | 9.35833 | 24878 ft | 352 kts | 9° |
| 2026-05-09 03:51 | 40.39653 | 9.36808 | 25071 ft | 353 kts | 10° |
| 2026-05-09 03:51 | 40.41995 | 9.37802 | 25250 ft | 354 kts | 9° |
| 2026-05-09 03:52 | 40.44345 | 9.38801 | 25446 ft | 355 kts | 9° |
| 2026-05-09 03:52 | 40.46699 | 9.39801 | 25648 ft | 356 kts | 9° |
| 2026-05-09 03:52 | 40.49057 | 9.40803 | 25847 ft | 357 kts | 9° |
| 2026-05-09 03:52 | 40.51419 | 9.41807 | 26036 ft | 358 kts | 10° |
| 2026-05-09 03:53 | 40.53788 | 9.42814 | 26241 ft | 359 kts | 9° |
| 2026-05-09 03:53 | 40.56167 | 9.43827 | 26431 ft | 360 kts | 9° |
| 2026-05-09 03:53 | 40.58552 | 9.44844 | 26611 ft | 361 kts | 9° |
| 2026-05-09 03:53 | 40.60942 | 9.45864 | 26764 ft | 362 kts | 9° |
| 2026-05-09 03:54 | 40.63341 | 9.46889 | 26934 ft | 363 kts | 9° |
| 2026-05-09 03:54 | 40.65742 | 9.47916 | 27102 ft | 363 kts | 9° |
| 2026-05-09 03:54 | 40.68144 | 9.48944 | 27265 ft | 364 kts | 9° |
| 2026-05-09 03:54 | 40.70552 | 9.49974 | 27438 ft | 365 kts | 9° |
| 2026-05-09 03:55 | 40.72970 | 9.51009 | 27603 ft | 365 kts | 9° |
| 2026-05-09 03:55 | 40.75394 | 9.52048 | 27774 ft | 367 kts | 9° |
| 2026-05-09 03:55 | 40.77823 | 9.53090 | 27922 ft | 367 kts | 9° |
| 2026-05-09 03:55 | 40.80251 | 9.54133 | 28052 ft | 368 kts | 9° |
| 2026-05-09 03:56 | 40.82692 | 9.55181 | 28186 ft | 369 kts | 9° |
| 2026-05-09 03:56 | 40.85132 | 9.56230 | 28338 ft | 370 kts | 9° |
| 2026-05-09 03:56 | 40.87584 | 9.57286 | 28483 ft | 371 kts | 9° |
| 2026-05-09 03:56 | 40.90040 | 9.58343 | 28617 ft | 372 kts | 9° |
| 2026-05-09 03:57 | 40.92504 | 9.59405 | 28730 ft | 373 kts | 9° |
| 2026-05-09 03:57 | 40.94984 | 9.60473 | 28845 ft | 377 kts | 9° |
| 2026-05-09 03:57 | 41.00092 | 9.62665 | 28886 ft | 398 kts | 9° |
| 2026-05-09 03:58 | 41.02765 | 9.63813 | 28995 ft | 409 kts | 9° |
| 2026-05-09 03:58 | 41.05508 | 9.64995 | 29085 ft | 420 kts | 10° |
| 2026-05-09 03:58 | 41.08325 | 9.66213 | 29171 ft | 431 kts | 10° |
| 2026-05-09 03:58 | 41.11203 | 9.67461 | 29249 ft | 441 kts | 10° |
| 2026-05-09 03:59 | 41.17165 | 9.70054 | 29416 ft | 459 kts | 11° |
| 2026-05-09 03:59 | 41.20223 | 9.71387 | 29573 ft | 466 kts | 11° |
| 2026-05-09 03:59 | 41.23313 | 9.72738 | 29914 ft | 467 kts | 11° |
| 2026-05-09 04:00 | 41.26389 | 9.74088 | 30357 ft | 466 kts | 11° |
| 2026-05-09 04:00 | 41.29459 | 9.75435 | 30795 ft | 463 kts | 10° |
| 2026-05-09 04:00 | 41.32513 | 9.76775 | 31231 ft | 461 kts | 10° |
| 2026-05-09 04:00 | 41.35548 | 9.78104 | 31624 ft | 460 kts | 10° |
| 2026-05-09 04:01 | 41.38586 | 9.79434 | 32054 ft | 458 kts | 9° |
| 2026-05-09 04:01 | 41.41603 | 9.80755 | 32470 ft | 456 kts | 9° |
| 2026-05-09 04:01 | 41.44618 | 9.82075 | 32799 ft | 456 kts | 9° |
| 2026-05-09 04:01 | 41.47637 | 9.83397 | 33095 ft | 457 kts | 8° |
| 2026-05-09 04:02 | 41.50648 | 9.84719 | 33557 ft | 453 kts | 8° |
| 2026-05-09 04:02 | 41.53633 | 9.86033 | 33981 ft | 451 kts | 8° |
| 2026-05-09 04:02 | 41.56631 | 9.87349 | 34091 ft | 456 kts | 8° |
| 2026-05-09 04:02 | 41.59655 | 9.88673 | 34098 ft | 461 kts | 8° |
| 2026-05-09 04:03 | 41.65780 | 9.91362 | 34090 ft | 471 kts | 8° |
| 2026-05-09 04:03 | 41.72094 | 9.94153 | 34082 ft | 476 kts | 8° |
| 2026-05-09 04:04 | 41.78335 | 9.96927 | 34096 ft | 476 kts | 8° |
| 2026-05-09 04:04 | 41.84612 | 9.99718 | 34081 ft | 475 kts | 8° |
| 2026-05-09 04:05 | 41.90883 | 10.02509 | 34081 ft | 474 kts | 8° |
| 2026-05-09 04:05 | 41.97145 | 10.05299 | 34120 ft | 474 kts | 8° |
| 2026-05-09 04:06 | 42.03398 | 10.08091 | 34093 ft | 473 kts | 8° |
| 2026-05-09 04:06 | 42.09634 | 10.10881 | 34079 ft | 472 kts | 8° |
| 2026-05-09 04:07 | 42.15856 | 10.13671 | 34082 ft | 471 kts | 8° |
| 2026-05-09 04:07 | 42.22070 | 10.16462 | 34085 ft | 470 kts | 8° |
| 2026-05-09 04:08 | 42.28275 | 10.19256 | 34085 ft | 470 kts | 8° |
| 2026-05-09 04:08 | 42.33422 | 10.21577 | 34092 ft | 468 kts | 8° |
| 2026-05-09 04:09 | 42.39595 | 10.24367 | 34082 ft | 467 kts | 8° |
| 2026-05-09 04:09 | 42.45753 | 10.27156 | 34086 ft | 466 kts | 8° |
| 2026-05-09 04:10 | 42.51905 | 10.29946 | 34087 ft | 466 kts | 8° |
| 2026-05-09 04:10 | 42.58047 | 10.32738 | 34099 ft | 465 kts | 8° |
| 2026-05-09 04:11 | 42.64177 | 10.35530 | 34083 ft | 465 kts | 8° |
| 2026-05-09 04:11 | 42.70255 | 10.38311 | 33809 ft | 453 kts | 8° |
| 2026-05-09 04:12 | 42.73251 | 10.39678 | 33505 ft | 458 kts | 8° |
| 2026-05-09 04:12 | 42.76297 | 10.41061 | 33151 ft | 463 kts | 8° |
| 2026-05-09 04:12 | 42.79343 | 10.42460 | 32679 ft | 460 kts | 9° |
| 2026-05-09 04:12 | 42.82353 | 10.43858 | 32236 ft | 454 kts | 9° |
| 2026-05-09 04:13 | 42.85319 | 10.45238 | 31787 ft | 447 kts | 9° |
| 2026-05-09 04:13 | 42.88247 | 10.46592 | 31363 ft | 442 kts | 9° |
| 2026-05-09 04:13 | 42.91147 | 10.47928 | 30945 ft | 437 kts | 9° |
| 2026-05-09 04:13 | 42.94012 | 10.49248 | 30540 ft | 433 kts | 10° |
| 2026-05-09 04:14 | 42.96860 | 10.50559 | 30131 ft | 430 kts | 11° |
| 2026-05-09 04:14 | 42.99683 | 10.51861 | 29638 ft | 427 kts | 11° |
| 2026-05-09 04:14 | 43.02494 | 10.53159 | 29186 ft | 425 kts | 11° |
| 2026-05-09 04:14 | 43.05286 | 10.54451 | 28749 ft | 423 kts | 11° |
| 2026-05-09 04:15 | 43.08064 | 10.55738 | 28327 ft | 421 kts | 11° |
| 2026-05-09 04:15 | 43.10835 | 10.57022 | 27880 ft | 420 kts | 11° |
| 2026-05-09 04:15 | 43.13605 | 10.58306 | 27457 ft | 420 kts | 12° |
| 2026-05-09 04:15 | 43.16370 | 10.59591 | 27036 ft | 420 kts | 13° |
| 2026-05-09 04:16 | 43.19140 | 10.60879 | 26595 ft | 420 kts | 13° |
| 2026-05-09 04:16 | 43.21906 | 10.62167 | 26164 ft | 420 kts | 13° |
| 2026-05-09 04:16 | 43.24670 | 10.63456 | 25736 ft | 419 kts | 13° |
| 2026-05-09 04:16 | 43.27457 | 10.64754 | 25325 ft | 433 kts | 13° |
| 2026-05-09 04:17 | 43.30378 | 10.66110 | 24886 ft | 455 kts | 13° |
| 2026-05-09 04:17 | 43.33413 | 10.67525 | 24446 ft | 462 kts | 14° |
| 2026-05-09 04:17 | 43.36415 | 10.68936 | 23959 ft | 462 kts | 14° |
| 2026-05-09 04:17 | 43.39455 | 10.70369 | 23452 ft | 465 kts | 14° |
| 2026-05-09 04:18 | 43.42523 | 10.71814 | 22888 ft | 466 kts | 14° |
| 2026-05-09 04:18 | 43.45581 | 10.73255 | 22406 ft | 463 kts | 15° |
| 2026-05-09 04:18 | 43.48659 | 10.74705 | 21902 ft | 458 kts | 15° |
| 2026-05-09 04:18 | 43.51622 | 10.76101 | 21428 ft | 455 kts | 15° |
| 2026-05-09 04:19 | 43.54601 | 10.77503 | 20972 ft | 452 kts | 15° |
| 2026-05-09 04:19 | 43.57566 | 10.78899 | 20503 ft | 449 kts | 15° |
| 2026-05-09 04:19 | 43.60512 | 10.80288 | 20027 ft | 447 kts | 15° |
| 2026-05-09 04:19 | 43.63448 | 10.81676 | 19571 ft | 444 kts | 15° |
| 2026-05-09 04:20 | 43.66369 | 10.83060 | 19068 ft | 443 kts | 15° |
| 2026-05-09 04:20 | 43.69277 | 10.84443 | 18602 ft | 441 kts | 16° |
| 2026-05-09 04:20 | 43.72166 | 10.85816 | 18088 ft | 438 kts | 17° |
| 2026-05-09 04:20 | 43.75032 | 10.87179 | 17585 ft | 433 kts | 17° |
| 2026-05-09 04:21 | 43.77871 | 10.88529 | 17110 ft | 429 kts | 17° |
| 2026-05-09 04:21 | 43.80678 | 10.89865 | 16642 ft | 424 kts | 17° |
| 2026-05-09 04:21 | 43.86208 | 10.92498 | 15812 ft | 415 kts | 17° |
| 2026-05-09 04:22 | 43.88930 | 10.93786 | 15389 ft | 412 kts | 17° |
| 2026-05-09 04:22 | 43.91638 | 10.95066 | 14942 ft | 410 kts | 17° |
| 2026-05-09 04:22 | 43.94333 | 10.96339 | 14523 ft | 408 kts | 17° |
| 2026-05-09 04:22 | 43.97018 | 10.97609 | 14090 ft | 406 kts | 17° |
| 2026-05-09 04:23 | 43.99684 | 10.98873 | 13619 ft | 405 kts | 17° |
| 2026-05-09 04:23 | 44.02342 | 11.00136 | 13160 ft | 401 kts | 17° |
| 2026-05-09 04:23 | 44.04944 | 11.01464 | 12717 ft | 393 kts | 20° |
| 2026-05-09 04:23 | 44.07447 | 11.02869 | 12287 ft | 385 kts | 21° |
| 2026-05-09 04:24 | 44.09896 | 11.04278 | 11885 ft | 377 kts | 21° |
| 2026-05-09 04:24 | 44.12293 | 11.05655 | 11488 ft | 369 kts | 21° |
| 2026-05-09 04:24 | 44.14655 | 11.07000 | 11087 ft | 363 kts | 21° |
| 2026-05-09 04:24 | 44.16946 | 11.08295 | 10704 ft | 358 kts | 21° |
| 2026-05-09 04:25 | 44.19228 | 11.09579 | 10481 ft | 348 kts | 21° |
| 2026-05-09 04:25 | 44.21436 | 11.10820 | 10321 ft | 337 kts | 21° |
| 2026-05-09 04:25 | 44.23559 | 11.12017 | 10159 ft | 320 kts | 21° |
| 2026-05-09 04:25 | 44.25564 | 11.13148 | 10152 ft | 304 kts | 21° |
| 2026-05-09 04:26 | 44.27380 | 11.14505 | 10113 ft | 293 kts | 40° |
| 2026-05-09 04:26 | 44.28609 | 11.16702 | 10003 ft | 285 kts | 64° |
| 2026-05-09 04:26 | 44.29178 | 11.19303 | 9646 ft | 280 kts | 82° |
| 2026-05-09 04:26 | 44.29190 | 11.22008 | 9158 ft | 279 kts | 97° |
| 2026-05-09 04:27 | 44.28969 | 11.24696 | 8617 ft | 280 kts | 97° |
| 2026-05-09 04:27 | 44.28793 | 11.27431 | 8168 ft | 285 kts | 93° |
| 2026-05-09 04:27 | 44.28746 | 11.30202 | 7822 ft | 285 kts | 89° |
| 2026-05-09 04:27 | 44.28863 | 11.32956 | 7502 ft | 284 kts | 83° |
| 2026-05-09 04:28 | 44.29153 | 11.35680 | 7218 ft | 283 kts | 78° |
| 2026-05-09 04:28 | 44.29603 | 11.38348 | 6935 ft | 282 kts | 74° |
| 2026-05-09 04:28 | 44.30198 | 11.40946 | 6605 ft | 281 kts | 69° |
| 2026-05-09 04:28 | 44.30932 | 11.43467 | 6308 ft | 279 kts | 65° |
| 2026-05-09 04:29 | 44.31794 | 11.45878 | 6011 ft | 277 kts | 60° |
| 2026-05-09 04:29 | 44.32775 | 11.48192 | 5719 ft | 276 kts | 56° |
| 2026-05-09 04:29 | 44.33872 | 11.50390 | 5444 ft | 275 kts | 51° |
| 2026-05-09 04:29 | 44.35081 | 11.52409 | 5320 ft | 267 kts | 47° |
| 2026-05-09 04:30 | 44.36362 | 11.54231 | 5217 ft | 258 kts | 43° |
| 2026-05-09 04:30 | 44.37651 | 11.55864 | 5153 ft | 242 kts | 40° |
| 2026-05-09 04:30 | 44.38898 | 11.57328 | 5044 ft | 228 kts | 37° |
| 2026-05-09 04:30 | 44.40299 | 11.58146 | 4920 ft | 215 kts | 6° |
| 2026-05-09 04:31 | 44.41740 | 11.57957 | 4718 ft | 206 kts | 342° |
| 2026-05-09 04:31 | 44.42968 | 11.57010 | 4506 ft | 200 kts | 321° |
| 2026-05-09 04:31 | 44.43836 | 11.55528 | 4272 ft | 197 kts | 300° |
| 2026-05-09 04:31 | 44.44480 | 11.53841 | 4025 ft | 196 kts | 300° |
| 2026-05-09 04:32 | 44.45126 | 11.52159 | 3812 ft | 195 kts | 301° |
| 2026-05-09 04:32 | 44.45781 | 11.50502 | 3597 ft | 194 kts | 300° |
| 2026-05-09 04:32 | 44.46400 | 11.48833 | 3405 ft | 193 kts | 299° |
| 2026-05-09 04:32 | 44.47003 | 11.47152 | 3258 ft | 194 kts | 298° |
| 2026-05-09 04:33 | 44.47614 | 11.45439 | 2963 ft | 197 kts | 298° |
| 2026-05-09 04:33 | 44.48218 | 11.43760 | 2680 ft | 195 kts | 298° |
| 2026-05-09 04:33 | 44.48823 | 11.42062 | 2352 ft | 194 kts | 297° |
| 2026-05-09 04:33 | 44.49419 | 11.40390 | 2057 ft | 188 kts | 297° |
| 2026-05-09 04:34 | 44.49991 | 11.38790 | 1754 ft | 179 kts | 297° |
| 2026-05-09 04:34 | 44.50527 | 11.37294 | 1505 ft | 164 kts | 297° |
| 2026-05-09 04:34 | 44.51023 | 11.35910 | 1202 ft | 154 kts | 295° |
| 2026-05-09 04:34 | 44.51505 | 11.34561 | 964 ft | 154 kts | 295° |
| 2026-05-09 04:35 | 44.51978 | 11.33237 | 704 ft | 151 kts | 294° |
| 2026-05-09 04:35 | 44.52444 | 11.31925 | 464 ft | 146 kts | 293° |
| 2026-05-09 04:35 | 44.52908 | 11.30645 | 264 ft | 148 kts | 295° |
| 2026-05-09 04:35 | 44.53368 | 11.29366 | 134 ft | 145 kts | 294° |
| 2026-05-09 04:36 | 44.53755 | 11.28246 | 124 ft | 106 kts | 297° |
| 2026-05-09 04:36 | 44.53810 | 11.27985 | 128 ft | 9 kts | 163° |
| 2026-05-09 04:36 | 44.53745 | 11.28006 | 127 ft | 12 kts | 167° |
| 2026-05-09 04:36 | 44.53651 | 11.28056 | 127 ft | 17 kts | 141° |
| 2026-05-09 04:37 | 44.53581 | 11.28216 | 128 ft | 22 kts | 117° |
| 2026-05-09 04:37 | 44.53506 | 11.28425 | 125 ft | 26 kts | 119° |
| 2026-05-09 04:37 | 44.53417 | 11.28670 | 125 ft | 30 kts | 111° |
| 2026-05-09 04:37 | 44.53322 | 11.28950 | 129 ft | 34 kts | 116° |
| 2026-05-09 04:38 | 44.53219 | 11.29085 | 129 ft | 18 kts | 122° |
| 2026-05-09 04:38 | 44.53164 | 11.29238 | 125 ft | 17 kts | 119° |
| 2026-05-09 04:38 | 44.53121 | 11.29335 | 129 ft | 6 kts | 151° |
| 2026-05-09 04:38 | 44.53081 | 11.29323 | 129 ft | 6 kts | 205° |
| 2026-05-09 04:39 | 44.53072 | 11.29318 | 128 ft | 2 kts | 206° |
| 2026-05-09 04:39 | 44.53069 | 11.29315 | 128 ft | 0 kts | 206° |